createdAt,value
2023-10-23T00:01:21.612Z,61.50
2023-10-23T00:03:52.048Z,61.58
2023-10-23T00:06:22.426Z,61.49
2023-10-23T00:08:52.622Z,61.63
2023-10-23T00:11:29.729Z,61.61
2023-10-23T00:13:59.928Z,61.59
2023-10-23T00:16:30.117Z,61.65
2023-10-23T00:19:00.341Z,61.60
2023-10-23T00:21:31.146Z,61.71
2023-10-23T00:24:01.368Z,61.78
2023-10-23T00:26:34.221Z,61.72
2023-10-23T00:29:04.751Z,61.78
2023-10-23T00:31:35.180Z,61.84
2023-10-23T00:34:05.477Z,61.76
2023-10-23T00:36:35.769Z,61.77
2023-10-23T00:39:06.065Z,61.80
2023-10-23T00:41:39.141Z,62.00
2023-10-23T00:44:09.426Z,61.67
2023-10-23T00:46:40.247Z,61.74
2023-10-23T00:49:12.138Z,61.90
2023-10-23T00:51:42.744Z,61.88
2023-10-23T00:54:13.492Z,62.06
2023-10-23T00:56:46.423Z,61.88
2023-10-23T00:59:17.652Z,61.88
2023-10-23T01:01:48.892Z,61.84
2023-10-23T01:04:19.873Z,61.96
2023-10-23T01:06:51.596Z,62.08
2023-10-23T01:09:22.111Z,62.08
2023-10-23T01:11:54.882Z,61.91
2023-10-23T01:14:25.201Z,62.03
2023-10-23T01:16:55.444Z,62.16
2023-10-23T01:19:25.952Z,62.17
2023-10-23T01:21:56.258Z,62.07
2023-10-23T01:24:29.358Z,62.21
2023-10-23T01:27:02.401Z,61.99
2023-10-23T01:29:32.600Z,62.22
2023-10-23T01:32:02.921Z,62.06
2023-10-23T01:34:33.133Z,62.10
2023-10-23T01:37:03.472Z,62.12
2023-10-23T01:39:33.766Z,62.37
2023-10-23T01:42:06.706Z,62.33
2023-10-23T01:44:36.912Z,62.46
2023-10-23T01:47:07.208Z,62.34
2023-10-23T01:49:37.340Z,62.22
2023-10-23T01:52:07.760Z,62.47
2023-10-23T01:54:38.126Z,62.13
2023-10-23T01:57:11.285Z,62.30
2023-10-23T01:59:41.527Z,62.20
2023-10-23T02:02:11.725Z,62.32
2023-10-23T02:04:42.287Z,62.24
2023-10-23T02:07:12.512Z,62.35
2023-10-23T02:09:42.725Z,62.45
2023-10-23T02:12:15.545Z,62.56
2023-10-23T02:14:45.722Z,62.57
2023-10-23T02:17:15.916Z,62.44
2023-10-23T02:22:16.461Z,62.32
2023-10-23T02:24:46.662Z,62.54
2023-10-23T02:27:21.359Z,62.59
2023-10-23T02:29:51.604Z,62.51
2023-10-23T02:32:21.790Z,62.38
2023-10-23T02:34:52.209Z,62.68
2023-10-23T02:37:22.897Z,62.57
2023-10-23T02:39:53.556Z,62.61
2023-10-23T02:42:26.506Z,62.60
2023-10-23T02:44:56.793Z,62.87
2023-10-23T02:47:27.322Z,62.73
2023-10-23T02:49:57.655Z,62.87
2023-10-23T02:52:27.861Z,62.77
2023-10-23T02:54:58.122Z,62.66
2023-10-23T02:57:30.964Z,62.68
2023-10-23T03:00:01.139Z,62.73
2023-10-23T03:02:31.390Z,62.71
2023-10-23T03:05:01.706Z,62.90
2023-10-23T03:07:31.911Z,62.94
2023-10-23T03:10:02.077Z,62.94
2023-10-23T03:12:35.060Z,62.96
2023-10-23T03:15:06.436Z,62.98
2023-10-23T03:17:36.666Z,63.02
2023-10-23T03:20:07.993Z,62.97
2023-10-23T03:22:38.183Z,63.08
2023-10-23T03:25:09.455Z,62.89
2023-10-23T03:27:42.978Z,63.16
2023-10-23T03:30:14.414Z,62.96
2023-10-23T03:32:44.621Z,62.91
2023-10-23T03:35:15.171Z,62.85
2023-10-23T03:37:45.318Z,62.97
2023-10-23T03:40:16.519Z,62.90
2023-10-23T03:42:49.323Z,62.84
2023-10-23T03:45:19.711Z,63.04
2023-10-23T03:47:50.002Z,62.90
2023-10-23T03:50:20.270Z,62.95
2023-10-23T03:52:50.425Z,62.85
2023-10-23T03:55:20.628Z,63.00
2023-10-23T03:57:53.998Z,63.17
2023-10-23T04:00:24.391Z,62.95
2023-10-23T04:02:54.597Z,63.11
2023-10-23T04:05:25.018Z,63.03
2023-10-23T04:07:55.189Z,62.92
2023-10-23T04:10:25.354Z,63.08
2023-10-23T04:12:59.447Z,63.08
2023-10-23T04:15:29.719Z,62.99
2023-10-23T04:18:00.014Z,63.04
2023-10-23T04:20:30.634Z,62.82
2023-10-23T04:23:00.763Z,62.90
2023-10-23T04:25:30.938Z,63.14
2023-10-23T04:28:04.921Z,63.00
2023-10-23T04:30:35.259Z,62.84
2023-10-23T04:33:05.492Z,63.10
2023-10-23T04:35:36.564Z,63.00
2023-10-23T04:38:06.686Z,62.88
2023-10-23T04:40:36.937Z,62.89
2023-10-23T04:43:09.716Z,63.09
2023-10-23T04:45:40.022Z,62.96
2023-10-23T04:48:10.841Z,62.90
2023-10-23T04:50:42.518Z,63.08
2023-10-23T04:53:12.692Z,62.94
2023-10-23T04:55:44.005Z,63.06
2023-10-23T04:58:16.882Z,63.00
2023-10-23T05:00:47.166Z,62.83
2023-10-23T05:03:17.412Z,62.95
2023-10-23T05:05:52.756Z,63.11
2023-10-23T05:08:22.932Z,62.76
2023-10-23T05:10:53.118Z,62.96
2023-10-23T05:13:26.795Z,63.11
2023-10-23T05:15:57.019Z,63.02
2023-10-23T05:18:27.298Z,62.91
2023-10-23T05:20:57.524Z,62.90
2023-10-23T05:23:27.807Z,62.98
2023-10-23T05:25:57.949Z,62.90
2023-10-23T05:28:30.848Z,63.18
2023-10-23T05:31:01.105Z,63.12
2023-10-23T05:33:31.301Z,62.88
2023-10-23T05:36:09.846Z,62.93
2023-10-23T05:38:40.604Z,63.42
2023-10-23T05:41:11.496Z,63.23
2023-10-23T05:43:45.556Z,63.24
2023-10-23T05:46:16.875Z,63.34
2023-10-23T05:48:47.187Z,62.99
2023-10-23T05:51:17.385Z,62.85
2023-10-23T05:53:47.786Z,62.97
2023-10-23T05:56:18.015Z,62.82
2023-10-23T05:58:52.291Z,62.90
2023-10-23T06:01:22.717Z,63.02
2023-10-23T06:03:54.546Z,62.90
2023-10-23T06:06:25.050Z,63.06
2023-10-23T06:08:55.443Z,63.15
2023-10-23T06:11:25.733Z,62.74
2023-10-23T06:13:58.630Z,63.11
2023-10-23T06:16:28.904Z,63.01
2023-10-23T06:18:59.351Z,63.01
2023-10-23T06:21:29.601Z,63.09
2023-10-23T06:24:00.104Z,62.99
2023-10-23T06:26:31.823Z,62.88
2023-10-23T06:29:04.888Z,62.74
2023-10-23T06:31:35.106Z,62.91
2023-10-23T06:34:05.624Z,62.61
2023-10-23T06:36:36.960Z,62.43
2023-10-23T06:39:07.455Z,62.98
2023-10-23T06:41:37.725Z,62.95
2023-10-23T06:44:11.217Z,63.06
2023-10-23T06:46:42.168Z,63.37
2023-10-23T06:49:12.603Z,63.48
2023-10-23T06:51:43.157Z,63.32
2023-10-23T06:54:13.535Z,63.34
2023-10-23T06:56:43.998Z,63.61
2023-10-23T06:59:16.922Z,63.60
2023-10-23T07:01:47.449Z,63.50
2023-10-23T07:04:18.091Z,63.89
2023-10-23T07:06:48.893Z,63.86
2023-10-23T07:09:20.516Z,63.73
2023-10-23T07:11:51.925Z,63.91
2023-10-23T07:14:25.377Z,63.82
2023-10-23T07:16:56.308Z,64.01
2023-10-23T07:19:26.977Z,63.91
2023-10-23T07:21:57.671Z,63.97
2023-10-23T07:24:28.177Z,63.78
2023-10-23T07:26:58.829Z,63.86
2023-10-23T07:29:33.662Z,63.74
2023-10-23T07:32:05.289Z,64.01
2023-10-23T07:34:35.810Z,63.66
2023-10-23T07:37:07.025Z,63.53
2023-10-23T07:39:37.971Z,63.62
2023-10-23T07:42:09.863Z,63.65
2023-10-23T07:44:43.340Z,63.77
2023-10-23T07:47:13.956Z,63.10
2023-10-23T07:49:44.459Z,62.83
2023-10-23T07:52:15.188Z,62.90
2023-10-23T07:54:45.866Z,63.05
2023-10-23T07:57:16.543Z,63.29
2023-10-23T07:59:50.501Z,63.11
2023-10-23T08:02:21.958Z,63.40
2023-10-23T08:04:52.923Z,63.58
2023-10-23T08:07:23.340Z,63.70
2023-10-23T08:09:54.184Z,63.86
2023-10-23T08:12:24.904Z,64.07
2023-10-23T08:14:58.705Z,63.84
2023-10-23T08:17:41.484Z,64.31
2023-10-23T08:20:13.682Z,64.38
2023-10-23T08:22:44.087Z,64.59
2023-10-23T08:25:14.567Z,64.75
2023-10-23T08:27:45.241Z,64.79
2023-10-23T08:30:18.628Z,65.49
2023-10-23T08:32:52.845Z,65.43
2023-10-23T08:35:27.111Z,66.17
2023-10-23T08:37:57.583Z,66.10
2023-10-23T08:40:28.164Z,65.62
2023-10-23T08:42:58.738Z,65.43
2023-10-23T08:45:32.137Z,65.79
2023-10-23T08:48:02.673Z,65.10
2023-10-23T08:50:34.910Z,64.12
2023-10-23T08:53:11.580Z,64.53
2023-10-23T08:55:42.400Z,64.67
2023-10-23T08:58:17.734Z,64.52
2023-10-23T09:00:51.622Z,63.43
2023-10-23T09:04:04.119Z,63.89
2023-10-23T09:06:15.132Z,63.96
2023-10-23T09:08:45.941Z,64.21
2023-10-23T09:11:17.687Z,64.31
2023-10-23T09:13:48.507Z,64.25
2023-10-23T09:16:21.730Z,64.05
2023-10-23T09:18:54.852Z,64.08
2023-10-23T09:21:25.632Z,64.65
2023-10-23T09:23:57.852Z,64.23
2023-10-23T09:26:28.762Z,64.38
2023-10-23T09:28:59.422Z,64.35
2023-10-23T09:31:33.135Z,64.46
2023-10-23T09:34:05.549Z,64.25
2023-10-23T09:36:37.021Z,64.47
2023-10-23T09:39:08.170Z,64.13
2023-10-23T09:41:39.205Z,64.68
2023-10-23T09:44:11.563Z,65.12
2023-10-23T09:46:45.613Z,64.97
2023-10-23T09:49:16.199Z,64.79
2023-10-23T09:51:52.735Z,64.83
2023-10-23T09:54:24.040Z,64.85
2023-10-23T09:56:56.694Z,64.48
2023-10-23T09:59:31.731Z,64.59
2023-10-23T10:02:07.483Z,64.98
2023-10-23T10:04:47.095Z,64.86
2023-10-23T10:07:26.128Z,64.81
2023-10-23T10:09:57.837Z,64.97
2023-10-23T10:12:30.304Z,64.76
2023-10-23T10:15:01.821Z,64.66
2023-10-23T10:17:37.234Z,64.46
2023-10-23T10:20:09.654Z,64.32
2023-10-23T10:22:42.785Z,64.01
2023-10-23T10:25:14.647Z,64.17
2023-10-23T10:27:45.109Z,64.19
2023-10-23T10:30:43.757Z,64.02
2023-10-23T10:34:18.385Z,64.14
2023-10-23T10:36:16.557Z,64.18
2023-10-23T10:39:07.360Z,64.10
2023-10-23T10:41:39.615Z,64.20
2023-10-23T10:44:14.949Z,64.13
2023-10-23T10:46:48.968Z,64.04
2023-10-23T10:49:25.826Z,64.26
2023-10-23T10:51:56.615Z,64.19
2023-10-23T10:54:27.299Z,64.18
2023-10-23T10:56:58.209Z,64.16
2023-10-23T10:59:31.253Z,64.01
2023-10-23T11:02:01.749Z,64.16
2023-10-23T11:04:38.568Z,64.14
2023-10-23T11:07:12.018Z,64.07
2023-10-23T11:09:43.088Z,64.16
2023-10-23T11:12:13.477Z,64.09
2023-10-23T11:14:44.429Z,63.89
2023-10-23T11:17:15.553Z,63.92
2023-10-23T11:19:48.668Z,63.93
2023-10-23T11:22:23.397Z,64.19
2023-10-23T11:24:54.308Z,64.04
2023-10-23T11:27:25.106Z,64.08
2023-10-23T11:29:56.505Z,64.12
2023-10-23T11:32:27.130Z,64.00
2023-10-23T11:35:05.355Z,63.98
2023-10-23T11:37:42.241Z,64.14
2023-10-23T11:40:15.136Z,64.24
2023-10-23T11:42:47.647Z,64.08
2023-10-23T11:45:19.584Z,64.15
2023-10-23T11:47:50.366Z,64.04
2023-10-23T11:50:24.168Z,64.23
2023-10-23T11:52:54.511Z,64.48
2023-10-23T11:55:25.487Z,64.69
2023-10-23T11:57:56.505Z,64.84
2023-10-23T12:00:28.840Z,64.77
2023-10-23T12:02:59.800Z,64.66
2023-10-23T12:05:32.623Z,64.58
2023-10-23T12:08:04.983Z,64.47
2023-10-23T12:10:39.690Z,64.40
2023-10-23T12:13:10.785Z,64.09
2023-10-23T12:15:41.188Z,63.55
2023-10-23T12:18:11.947Z,63.66
2023-10-23T12:20:45.274Z,64.20
2023-10-23T12:23:16.010Z,64.03
2023-10-23T12:25:46.385Z,63.94
2023-10-23T12:28:16.831Z,64.24
2023-10-23T12:30:47.270Z,63.81
2023-10-23T12:33:22.665Z,63.28
2023-10-23T12:35:58.550Z,63.38
2023-10-23T12:38:29.878Z,63.61
2023-10-23T12:41:01.308Z,63.34
2023-10-23T12:43:31.883Z,63.33
2023-10-23T12:46:02.460Z,63.62
2023-10-23T12:48:33.061Z,63.36
2023-10-23T12:51:06.069Z,64.02
2023-10-23T12:53:36.324Z,64.11
2023-10-23T12:56:06.734Z,63.69
2023-10-23T12:58:37.588Z,63.72
2023-10-23T13:01:08.523Z,62.89
2023-10-23T13:03:39.050Z,62.85
2023-10-23T13:06:12.441Z,62.81
2023-10-23T13:08:44.659Z,62.96
2023-10-23T13:11:15.066Z,61.51
2023-10-23T13:13:45.735Z,61.91
2023-10-23T13:16:16.294Z,62.29
2023-10-23T13:18:53.226Z,62.86
2023-10-23T13:21:33.123Z,62.62
2023-10-23T13:24:06.539Z,62.41
2023-10-23T13:26:39.016Z,62.49
2023-10-23T13:29:09.992Z,62.49
2023-10-23T13:31:40.623Z,62.82
2023-10-23T13:34:11.360Z,62.84
2023-10-23T13:36:45.645Z,62.72
2023-10-23T13:39:17.522Z,62.56
2023-10-23T13:41:48.107Z,62.70
2023-10-23T13:44:18.883Z,62.94
2023-10-23T13:46:49.352Z,62.81
2023-10-23T13:49:20.048Z,62.86
2023-10-23T13:51:53.500Z,63.00
2023-10-23T13:54:25.285Z,62.86
2023-10-23T13:56:55.800Z,63.10
2023-10-23T13:59:26.961Z,62.77
2023-10-23T14:01:57.470Z,63.01
2023-10-23T14:04:28.359Z,62.96
2023-10-23T14:07:01.816Z,62.88
2023-10-23T14:09:42.372Z,62.86
2023-10-23T14:12:16.407Z,62.95
2023-10-23T14:14:47.096Z,63.01
2023-10-23T14:17:17.532Z,63.01
2023-10-23T14:19:49.198Z,63.00
2023-10-23T14:22:22.619Z,62.90
2023-10-23T14:24:53.050Z,63.00
2023-10-23T14:27:23.531Z,63.09
2023-10-23T14:29:53.870Z,63.21
2023-10-23T14:32:24.571Z,63.26
2023-10-23T14:34:55.578Z,63.67
2023-10-23T14:37:29.013Z,63.66
2023-10-23T14:39:59.739Z,64.04
2023-10-23T14:42:30.416Z,63.84
2023-10-23T14:45:02.004Z,63.95
2023-10-23T14:47:32.527Z,64.01
2023-10-23T14:50:05.125Z,63.98
2023-10-23T14:52:38.354Z,64.15
2023-10-23T14:55:10.339Z,64.30
2023-10-23T14:57:40.872Z,64.24
2023-10-23T15:00:13.630Z,64.10
2023-10-23T15:02:44.096Z,64.18
2023-10-23T15:05:14.584Z,64.03
2023-10-23T15:07:47.601Z,63.98
2023-10-23T15:10:21.713Z,64.10
2023-10-23T15:12:52.605Z,63.94
2023-10-23T15:15:25.620Z,64.27
2023-10-23T15:17:56.306Z,64.42
2023-10-23T15:20:30.864Z,64.28
2023-10-23T15:23:04.661Z,64.10
2023-10-23T15:25:35.494Z,64.37
2023-10-23T15:28:06.714Z,64.37
2023-10-23T15:30:37.640Z,64.22
2023-10-23T15:33:09.486Z,64.18
2023-10-23T15:35:40.090Z,64.38
2023-10-23T15:38:13.169Z,64.32
2023-10-23T15:40:43.936Z,64.47
2023-10-23T15:43:14.531Z,64.36
2023-10-23T15:45:47.163Z,64.20
2023-10-23T15:48:17.546Z,64.22
2023-10-23T15:50:48.079Z,64.29
2023-10-23T15:53:21.673Z,64.08
2023-10-23T15:55:52.139Z,64.33
2023-10-23T15:58:24.005Z,64.51
2023-10-23T16:00:55.382Z,64.54
2023-10-23T16:03:26.127Z,64.48
2023-10-23T16:05:56.901Z,64.58
2023-10-23T16:08:29.969Z,64.40
2023-10-23T16:11:00.437Z,64.34
2023-10-23T16:13:38.282Z,64.54
2023-10-23T16:16:14.555Z,64.51
2023-10-23T16:18:47.984Z,64.59
2023-10-23T16:21:18.465Z,64.66
2023-10-23T16:23:51.999Z,64.52
2023-10-23T16:26:22.680Z,64.54
2023-10-23T16:28:53.510Z,64.36
2023-10-23T16:31:24.075Z,64.63
2023-10-23T16:33:54.526Z,64.69
2023-10-23T16:36:25.290Z,64.68
2023-10-23T16:38:58.373Z,64.52
2023-10-23T16:41:28.684Z,64.47
2023-10-23T16:43:59.160Z,64.62
2023-10-23T16:46:29.767Z,64.56
2023-10-23T16:49:00.215Z,64.38
2023-10-23T16:51:30.696Z,64.24
2023-10-23T16:54:03.873Z,63.91
2023-10-23T16:56:34.269Z,63.78
2023-10-23T16:59:05.345Z,63.78
2023-10-23T17:01:37.052Z,63.61
2023-10-23T17:04:07.887Z,63.66
2023-10-23T17:06:40.099Z,63.59
2023-10-23T17:09:13.922Z,63.06
2023-10-23T17:11:45.641Z,62.95
2023-10-23T17:14:16.273Z,63.17
2023-10-23T17:16:46.939Z,62.82
2023-10-23T17:19:19.008Z,62.81
2023-10-23T17:21:49.407Z,62.43
2023-10-23T17:24:22.457Z,62.33
2023-10-23T17:26:52.897Z,61.39
2023-10-23T17:29:25.483Z,61.83
2023-10-23T17:31:56.592Z,61.82
2023-10-23T17:34:30.469Z,61.77
2023-10-23T17:37:01.445Z,61.74
2023-10-23T17:39:38.733Z,61.84
2023-10-23T17:42:09.988Z,61.94
2023-10-23T17:44:40.189Z,61.73
2023-10-23T17:47:10.598Z,61.63
2023-10-23T17:49:41.292Z,61.63
2023-10-23T17:52:11.806Z,61.63
2023-10-23T17:54:46.679Z,61.84
2023-10-23T17:57:21.138Z,61.72
2023-10-23T17:59:51.555Z,61.30
2023-10-23T18:02:22.407Z,61.34
2023-10-23T18:04:53.225Z,61.38
2023-10-23T18:07:23.934Z,61.42
2023-10-23T18:09:56.982Z,61.03
2023-10-23T18:12:38.038Z,60.71
2023-10-23T18:15:10.604Z,60.62
2023-10-23T18:17:41.733Z,60.56
2023-10-23T18:20:13.563Z,60.24
2023-10-23T18:22:44.465Z,59.76
2023-10-23T18:25:17.403Z,59.62
2023-10-23T18:27:48.067Z,59.41
2023-10-23T18:30:18.776Z,59.41
2023-10-23T18:32:49.330Z,59.17
2023-10-23T18:35:19.991Z,58.97
2023-10-23T18:37:50.502Z,58.83
2023-10-23T18:40:23.700Z,58.84
2023-10-23T18:43:01.780Z,58.88
2023-10-23T18:45:32.856Z,58.77
2023-10-23T18:48:05.361Z,58.63
2023-10-23T18:50:36.475Z,58.80
2023-10-23T18:53:07.958Z,58.46
2023-10-23T18:55:41.137Z,58.68
2023-10-23T18:58:12.601Z,58.67
2023-10-23T19:00:43.140Z,58.71
2023-10-23T19:03:14.175Z,58.62
2023-10-23T19:05:45.337Z,58.69
2023-10-23T19:08:17.380Z,58.79
2023-10-23T19:10:51.217Z,58.78
2023-10-23T19:13:22.024Z,58.84
2023-10-23T19:16:03.794Z,58.94
2023-10-23T19:18:35.770Z,58.82
2023-10-23T19:21:10.625Z,59.07
2023-10-23T19:23:42.916Z,59.14
2023-10-23T19:26:19.439Z,58.99
2023-10-23T19:28:50.528Z,59.05
2023-10-23T19:31:27.488Z,58.94
2023-10-23T19:34:01.097Z,59.13
2023-10-23T19:36:37.633Z,58.92
2023-10-23T19:39:12.419Z,58.88
2023-10-23T19:41:52.529Z,58.88
2023-10-23T19:44:24.487Z,59.06
2023-10-23T19:46:56.320Z,59.05
2023-10-23T19:49:29.609Z,58.81
2023-10-23T19:52:02.058Z,58.85
2023-10-23T19:54:37.594Z,58.82
2023-10-23T19:57:16.650Z,58.72
2023-10-23T19:59:48.033Z,58.45
2023-10-23T20:02:22.399Z,58.75
2023-10-23T20:04:54.878Z,58.63
2023-10-23T20:07:26.251Z,58.64
2023-10-23T20:09:58.031Z,58.59
2023-10-23T20:12:34.729Z,58.65
2023-10-23T20:15:05.859Z,58.58
2023-10-23T20:17:36.461Z,58.60
2023-10-23T20:20:08.561Z,58.73
2023-10-23T20:22:41.264Z,58.87
2023-10-23T20:25:14.859Z,58.74
2023-10-23T20:27:48.453Z,58.76
2023-10-23T20:30:22.104Z,58.67
2023-10-23T20:32:54.033Z,58.66
2023-10-23T20:35:25.770Z,58.42
2023-10-23T20:38:00.810Z,58.51
2023-10-23T20:40:34.275Z,58.54
2023-10-23T20:43:08.796Z,58.29
2023-10-23T20:45:42.963Z,58.40
2023-10-23T20:48:15.918Z,58.14
2023-10-23T20:50:47.281Z,58.27
2023-10-23T20:53:18.915Z,58.32
2023-10-23T20:55:53.217Z,58.08
2023-10-23T20:58:28.350Z,57.81
2023-10-23T21:01:01.490Z,58.38
2023-10-23T21:03:33.074Z,57.88
2023-10-23T21:06:05.959Z,57.56
2023-10-23T21:08:39.317Z,57.82
2023-10-23T21:11:10.373Z,57.85
2023-10-23T21:13:43.273Z,58.09
2023-10-23T21:16:14.140Z,58.53
2023-10-23T21:18:44.907Z,58.46
2023-10-23T21:21:15.859Z,58.46
2023-10-23T21:23:46.650Z,58.65
2023-10-23T21:26:17.950Z,58.68
2023-10-23T21:28:51.218Z,58.64
2023-10-23T21:31:22.117Z,58.52
2023-10-23T21:33:52.641Z,58.79
2023-10-23T21:36:23.049Z,58.45
2023-10-23T21:38:53.478Z,58.64
2023-10-23T21:41:24.305Z,58.44
2023-10-23T21:43:57.634Z,58.06
2023-10-23T21:46:28.285Z,57.86
2023-10-23T21:48:58.974Z,58.08
2023-10-23T21:51:29.531Z,57.36
2023-10-23T21:54:00.987Z,57.25
2023-10-23T21:57:16.126Z,57.52
2023-10-23T21:59:25.137Z,56.73
2023-10-23T22:01:56.462Z,56.48
2023-10-23T22:04:28.032Z,56.25
2023-10-23T22:06:59.432Z,56.35
2023-10-23T22:09:30.543Z,56.32
2023-10-23T22:12:01.633Z,56.43
2023-10-23T22:14:35.585Z,56.38
2023-10-23T22:17:06.195Z,56.16
2023-10-23T22:19:36.838Z,56.48
2023-10-23T22:22:07.768Z,56.20
2023-10-23T22:24:38.347Z,56.33
2023-10-23T22:27:08.796Z,56.55
2023-10-23T22:29:42.118Z,56.07
2023-10-23T22:32:13.115Z,56.12
2023-10-23T22:34:43.286Z,56.11
2023-10-23T22:38:00.338Z,56.16
2023-10-23T22:40:04.963Z,56.53
2023-10-23T22:42:35.655Z,56.42
2023-10-23T22:45:09.831Z,56.61
2023-10-23T22:47:40.162Z,56.63
2023-10-23T22:50:12.102Z,56.47
2023-10-23T22:52:43.346Z,56.75
2023-10-23T22:55:15.766Z,56.85
2023-10-23T22:57:49.804Z,57.12
2023-10-23T23:00:23.889Z,57.18
2023-10-23T23:02:55.661Z,57.20
2023-10-23T23:05:26.576Z,57.29
2023-10-23T23:08:02.209Z,57.45
2023-10-23T23:10:33.607Z,57.49
2023-10-23T23:13:05.171Z,57.66
2023-10-23T23:15:38.909Z,57.57
2023-10-23T23:18:11.498Z,57.60
2023-10-23T23:20:44.814Z,57.84
2023-10-23T23:23:15.146Z,57.72
2023-10-23T23:25:45.737Z,57.84
2023-10-23T23:28:17.403Z,58.13
2023-10-23T23:30:50.460Z,58.19
2023-10-23T23:33:20.792Z,58.12
2023-10-23T23:35:54.110Z,58.41
2023-10-23T23:38:24.423Z,58.28
2023-10-23T23:40:56.159Z,58.42
2023-10-23T23:43:26.544Z,58.49
2023-10-23T23:46:02.447Z,58.42
2023-10-23T23:48:32.835Z,58.59
2023-10-23T23:51:03.262Z,58.72
2023-10-23T23:53:33.552Z,58.86
2023-10-23T23:56:03.968Z,58.71
2023-10-23T23:58:34.241Z,58.92
